createdAt,value
2017-11-29T00:00:19.911Z,57.73
2017-11-29T00:01:22.384Z,57.67
2017-11-29T00:02:25.756Z,57.85
2017-11-29T00:03:28.286Z,57.84
2017-11-29T00:04:30.766Z,57.96
2017-11-29T00:05:33.233Z,57.95
2017-11-29T00:06:35.716Z,58.08
2017-11-29T00:07:38.181Z,58.11
2017-11-29T00:08:40.644Z,58.36
2017-11-29T00:09:43.116Z,58.29
2017-11-29T00:10:45.589Z,58.38
2017-11-29T00:11:48.081Z,58.42
2017-11-29T00:12:50.566Z,58.32
2017-11-29T00:13:53.032Z,58.40
2017-11-29T00:14:55.513Z,58.43
2017-11-29T00:15:57.981Z,58.32
2017-11-29T00:17:00.458Z,58.34
2017-11-29T00:18:02.920Z,58.44
2017-11-29T00:19:05.397Z,58.42
2017-11-29T00:20:07.864Z,58.51
2017-11-29T00:21:10.328Z,58.70
2017-11-29T00:22:12.793Z,58.75
2017-11-29T00:23:15.265Z,58.86
2017-11-29T00:24:17.728Z,58.85
2017-11-29T00:25:20.189Z,58.74
2017-11-29T00:26:22.648Z,58.88
2017-11-29T00:27:25.114Z,58.91
2017-11-29T00:28:27.631Z,58.94
2017-11-29T00:29:30.077Z,58.97
2017-11-29T00:30:32.558Z,58.86
2017-11-29T00:31:35.034Z,58.71
2017-11-29T00:32:37.491Z,58.62
2017-11-29T00:33:39.969Z,58.61
2017-11-29T00:34:42.448Z,58.36
2017-11-29T00:35:44.956Z,58.44
2017-11-29T00:36:47.416Z,58.18
2017-11-29T00:37:49.893Z,58.04
2017-11-29T00:38:52.380Z,58.08
2017-11-29T00:39:54.851Z,58.07
2017-11-29T00:40:57.339Z,58.08
2017-11-29T00:41:59.821Z,58.09
2017-11-29T00:43:02.301Z,58.18
2017-11-29T00:44:04.794Z,58.12
2017-11-29T00:45:07.271Z,58.10
2017-11-29T00:46:09.756Z,58.20
2017-11-29T00:47:12.238Z,58.21
2017-11-29T00:48:14.696Z,58.27
2017-11-29T00:49:17.161Z,58.35
2017-11-29T00:50:19.624Z,58.39
2017-11-29T00:51:22.088Z,58.52
2017-11-29T00:52:24.567Z,58.59
2017-11-29T00:53:27.042Z,58.82
2017-11-29T00:54:29.514Z,58.83
2017-11-29T00:55:31.989Z,58.96
2017-11-29T00:56:34.448Z,59.01
2017-11-29T00:57:36.927Z,59.09
2017-11-29T00:58:39.388Z,59.10
2017-11-29T00:59:41.848Z,59.22
2017-11-29T01:00:44.326Z,59.30
2017-11-29T01:01:46.799Z,59.36
2017-11-29T01:02:49.407Z,59.31
2017-11-29T01:03:51.902Z,59.25
2017-11-29T01:04:54.409Z,59.29
2017-11-29T01:05:56.981Z,59.42
2017-11-29T01:06:59.604Z,59.52
2017-11-29T01:08:02.077Z,59.44
2017-11-29T01:09:04.545Z,59.50
2017-11-29T01:10:07.083Z,59.51
2017-11-29T01:11:09.556Z,59.57
2017-11-29T01:12:12.034Z,59.54
2017-11-29T01:13:14.541Z,59.56
2017-11-29T01:14:17.020Z,59.57
2017-11-29T01:15:19.494Z,59.69
2017-11-29T01:16:21.972Z,59.80
2017-11-29T01:17:24.432Z,59.81
2017-11-29T01:18:26.891Z,59.79
2017-11-29T01:19:29.420Z,59.87
2017-11-29T01:20:31.904Z,59.88
2017-11-29T01:21:34.390Z,59.84
2017-11-29T01:22:36.874Z,59.84
2017-11-29T01:23:39.354Z,59.72
2017-11-29T01:24:41.842Z,59.54
2017-11-29T01:25:44.312Z,59.37
2017-11-29T01:26:46.767Z,59.15
2017-11-29T01:27:49.237Z,59.15
2017-11-29T01:28:51.700Z,59.20
2017-11-29T01:29:54.160Z,59.13
2017-11-29T01:30:56.645Z,58.98
2017-11-29T01:31:59.132Z,58.93
2017-11-29T01:33:01.629Z,58.91
2017-11-29T01:34:04.087Z,58.75
2017-11-29T01:35:06.543Z,58.80
2017-11-29T01:36:08.991Z,58.84
2017-11-29T01:37:11.465Z,58.85
2017-11-29T01:38:13.946Z,58.83
2017-11-29T01:39:16.419Z,58.86
2017-11-29T01:40:18.895Z,58.96
2017-11-29T01:41:21.352Z,58.95
2017-11-29T01:42:23.822Z,59.05
2017-11-29T01:43:26.288Z,58.94
2017-11-29T01:44:28.748Z,59.05
2017-11-29T01:45:31.226Z,59.06
2017-11-29T01:46:33.712Z,59.12
2017-11-29T01:47:36.191Z,59.25
2017-11-29T01:48:38.652Z,59.44
2017-11-29T01:49:41.113Z,59.45
2017-11-29T01:50:43.586Z,59.53
2017-11-29T01:51:46.071Z,59.65
2017-11-29T01:52:48.539Z,59.76
2017-11-29T01:53:51.018Z,59.95
2017-11-29T01:54:53.499Z,60.09
2017-11-29T01:55:55.964Z,59.96
2017-11-29T01:56:58.421Z,59.69
2017-11-29T01:58:00.902Z,59.74
2017-11-29T01:59:03.364Z,60.00
2017-11-29T02:00:05.844Z,60.19
2017-11-29T02:01:08.312Z,60.26
2017-11-29T02:02:10.771Z,60.08
2017-11-29T02:03:13.228Z,60.22
2017-11-29T02:04:15.705Z,60.28
2017-11-29T02:06:26.854Z,60.50
2017-11-29T02:07:29.319Z,60.47
2017-11-29T02:08:31.783Z,60.38
2017-11-29T02:09:34.270Z,60.56
2017-11-29T02:10:36.763Z,60.77
2017-11-29T02:11:39.225Z,60.71
2017-11-29T02:12:41.714Z,60.57
2017-11-29T02:13:44.185Z,59.81
2017-11-29T02:14:46.643Z,58.33
2017-11-29T02:15:49.103Z,58.88
2017-11-29T02:16:51.582Z,59.23
2017-11-29T02:17:54.059Z,59.34
2017-11-29T02:18:56.538Z,59.19
2017-11-29T02:19:59.019Z,59.47
2017-11-29T02:21:01.506Z,59.48
2017-11-29T02:22:03.964Z,59.49
2017-11-29T02:23:06.436Z,59.39
2017-11-29T02:24:08.903Z,59.52
2017-11-29T02:25:11.380Z,59.60
2017-11-29T02:26:13.858Z,59.86
2017-11-29T02:27:16.321Z,59.90
2017-11-29T02:28:18.786Z,59.95
2017-11-29T02:29:21.293Z,59.93
2017-11-29T02:30:23.774Z,60.06
2017-11-29T02:31:26.245Z,60.06
2017-11-29T02:32:28.738Z,60.03
2017-11-29T02:33:31.290Z,60.06
2017-11-29T02:34:33.785Z,60.05
2017-11-29T02:35:36.270Z,60.10
2017-11-29T02:36:38.759Z,60.12
2017-11-29T02:37:41.218Z,60.20
2017-11-29T02:38:43.704Z,60.27
2017-11-29T02:39:57.954Z,60.46
2017-11-29T02:41:12.180Z,60.50
2017-11-29T02:42:26.536Z,60.52
2017-11-29T02:43:29.042Z,60.53
2017-11-29T02:44:31.521Z,60.65
2017-11-29T02:45:34.011Z,60.66
2017-11-29T02:46:36.472Z,60.65
2017-11-29T02:47:38.943Z,60.61
2017-11-29T02:48:41.449Z,60.59
2017-11-29T02:49:43.934Z,60.65
2017-11-29T02:50:46.400Z,60.67
2017-11-29T02:51:48.868Z,60.70
2017-11-29T02:52:51.366Z,60.71
2017-11-29T02:53:53.846Z,60.85
2017-11-29T02:54:56.309Z,60.91
2017-11-29T02:55:58.795Z,61.06
2017-11-29T02:57:01.264Z,61.09
2017-11-29T02:58:03.738Z,61.13
2017-11-29T02:59:06.244Z,61.12
2017-11-29T03:00:08.700Z,61.16
2017-11-29T03:01:11.161Z,61.13
2017-11-29T03:02:13.624Z,61.11
2017-11-29T03:03:16.081Z,61.11
2017-11-29T03:04:18.561Z,61.17
2017-11-29T03:05:21.028Z,61.35
2017-11-29T03:06:23.519Z,61.30
2017-11-29T03:07:25.994Z,61.21
2017-11-29T03:08:28.452Z,61.38
2017-11-29T03:09:30.949Z,61.34
2017-11-29T03:10:33.413Z,61.40
2017-11-29T03:11:35.888Z,61.41
2017-11-29T03:12:38.357Z,61.48
2017-11-29T03:13:40.835Z,61.48
2017-11-29T03:14:43.355Z,61.44
2017-11-29T03:15:45.829Z,61.45
2017-11-29T03:16:48.288Z,61.45
2017-11-29T03:17:50.770Z,61.44
2017-11-29T03:18:53.228Z,61.37
2017-11-29T03:19:55.704Z,61.33
2017-11-29T03:20:58.173Z,61.42
2017-11-29T03:22:00.637Z,61.62
2017-11-29T03:23:03.103Z,61.66
2017-11-29T03:24:05.555Z,61.55
2017-11-29T03:25:08.047Z,61.52
2017-11-29T03:26:10.515Z,61.54
2017-11-29T03:27:12.991Z,61.65
2017-11-29T03:28:15.448Z,61.69
2017-11-29T03:29:17.923Z,61.60
2017-11-29T03:30:20.414Z,61.66
2017-11-29T03:31:22.912Z,61.64
2017-11-29T03:32:25.387Z,61.57
2017-11-29T03:33:27.853Z,61.64
2017-11-29T03:34:30.334Z,61.80
2017-11-29T03:35:32.825Z,61.90
2017-11-29T03:36:35.302Z,62.08
2017-11-29T03:37:37.771Z,62.00
2017-11-29T03:38:40.246Z,62.13
2017-11-29T03:39:42.722Z,62.10
2017-11-29T03:40:45.200Z,62.10
2017-11-29T03:41:47.679Z,62.20
2017-11-29T03:42:50.143Z,62.28
2017-11-29T03:43:52.608Z,62.40
2017-11-29T03:44:55.072Z,62.44
2017-11-29T03:45:57.567Z,62.42
2017-11-29T03:47:00.024Z,62.44
2017-11-29T03:48:02.502Z,62.42
2017-11-29T03:49:04.956Z,62.43
2017-11-29T03:50:07.426Z,62.52
2017-11-29T03:51:09.905Z,62.59
2017-11-29T03:52:12.368Z,62.67
2017-11-29T03:53:14.831Z,62.74
2017-11-29T03:54:17.368Z,62.78
2017-11-29T03:55:19.843Z,62.81
2017-11-29T03:56:22.332Z,62.81
2017-11-29T03:57:24.834Z,62.85
2017-11-29T03:58:27.320Z,62.88
2017-11-29T03:59:29.775Z,62.88
2017-11-29T04:00:32.240Z,62.81
2017-11-29T04:01:34.716Z,62.74
2017-11-29T04:02:37.172Z,62.79
2017-11-29T04:03:39.650Z,62.91
2017-11-29T04:04:42.108Z,63.01
2017-11-29T04:05:44.564Z,63.10
2017-11-29T04:06:47.048Z,63.11
2017-11-29T04:07:49.521Z,62.81
2017-11-29T04:08:52.185Z,62.69
2017-11-29T04:09:54.654Z,62.82
2017-11-29T04:10:57.108Z,62.98
2017-11-29T04:11:59.610Z,62.92
2017-11-29T04:13:02.064Z,62.72
2017-11-29T04:14:04.521Z,62.80
2017-11-29T04:15:06.998Z,63.15
2017-11-29T04:16:09.476Z,63.08
2017-11-29T04:17:11.981Z,63.11
2017-11-29T04:18:14.459Z,63.20
2017-11-29T04:19:16.951Z,63.32
2017-11-29T04:20:19.426Z,63.36
2017-11-29T04:21:21.913Z,63.39
2017-11-29T04:22:24.409Z,63.40
2017-11-29T04:23:26.867Z,63.39
2017-11-29T04:24:29.352Z,63.40
2017-11-29T04:25:31.829Z,63.46
2017-11-29T04:26:34.283Z,63.52
2017-11-29T04:27:36.763Z,63.51
2017-11-29T04:28:39.235Z,63.52
2017-11-29T04:29:41.704Z,63.56
2017-11-29T04:30:44.181Z,63.58
2017-11-29T04:31:46.649Z,63.56
2017-11-29T04:32:49.154Z,63.58
2017-11-29T04:33:51.627Z,63.60
2017-11-29T04:34:54.103Z,63.62
2017-11-29T04:35:56.577Z,63.67
2017-11-29T04:36:59.090Z,63.74
2017-11-29T04:38:01.578Z,63.80
2017-11-29T04:39:04.044Z,63.79
2017-11-29T04:40:06.519Z,63.80
2017-11-29T04:41:08.973Z,63.81
2017-11-29T04:42:11.444Z,63.80
2017-11-29T04:43:13.939Z,63.82
2017-11-29T04:44:16.418Z,63.36
2017-11-29T04:45:18.902Z,63.24
2017-11-29T04:46:21.369Z,63.21
2017-11-29T04:47:23.824Z,63.05
2017-11-29T04:48:26.324Z,62.98
2017-11-29T04:49:28.803Z,62.81
2017-11-29T04:50:31.269Z,62.74
2017-11-29T04:51:33.736Z,62.66
2017-11-29T04:52:36.215Z,62.60
2017-11-29T04:53:38.704Z,62.58
2017-11-29T04:54:41.179Z,62.71
2017-11-29T04:55:43.667Z,62.84
2017-11-29T04:56:46.131Z,62.90
2017-11-29T04:57:48.608Z,62.78
2017-11-29T04:58:51.097Z,62.63
2017-11-29T04:59:53.548Z,62.58
2017-11-29T05:00:56.023Z,62.55
2017-11-29T05:01:58.498Z,62.72
2017-11-29T05:03:00.996Z,62.74
2017-11-29T05:04:03.486Z,62.80
2017-11-29T05:05:05.950Z,62.77
2017-11-29T05:06:08.421Z,62.69
2017-11-29T05:07:10.931Z,62.67
2017-11-29T05:08:13.432Z,62.54
2017-11-29T05:09:15.915Z,62.64
2017-11-29T05:10:18.372Z,62.82
2017-11-29T05:11:20.847Z,62.95
2017-11-29T05:12:23.305Z,62.95
2017-11-29T05:13:25.776Z,62.97
2017-11-29T05:14:28.247Z,62.97
2017-11-29T05:15:30.703Z,63.03
2017-11-29T05:16:33.174Z,63.04
2017-11-29T05:17:35.646Z,63.07
2017-11-29T05:18:38.118Z,63.10
2017-11-29T05:19:40.599Z,63.04
2017-11-29T05:20:43.076Z,62.95
2017-11-29T05:21:45.546Z,62.98
2017-11-29T05:22:48.005Z,63.08
2017-11-29T05:23:50.460Z,63.00
2017-11-29T05:24:52.950Z,62.88
2017-11-29T05:25:55.437Z,62.83
2017-11-29T05:26:57.896Z,62.63
2017-11-29T05:28:00.354Z,62.58
2017-11-29T05:29:02.821Z,62.60
2017-11-29T05:30:05.296Z,62.48
2017-11-29T05:31:07.771Z,62.38
2017-11-29T05:32:10.242Z,62.59
2017-11-29T05:33:12.700Z,62.84
2017-11-29T05:34:15.156Z,63.05
2017-11-29T05:35:17.628Z,62.98
2017-11-29T05:36:20.147Z,63.08
2017-11-29T05:37:22.612Z,62.95
2017-11-29T05:38:25.090Z,63.03
2017-11-29T05:39:27.565Z,63.18
2017-11-29T05:40:30.053Z,63.18
2017-11-29T05:41:32.514Z,63.14
2017-11-29T05:42:34.991Z,63.07
2017-11-29T05:43:37.466Z,63.01
2017-11-29T05:44:39.939Z,63.10
2017-11-29T05:45:42.432Z,63.26
2017-11-29T05:46:44.902Z,63.36
2017-11-29T05:47:47.385Z,63.45
2017-11-29T05:48:49.843Z,63.46
2017-11-29T05:49:52.299Z,63.48
2017-11-29T05:50:54.773Z,63.67
2017-11-29T05:51:57.231Z,63.85
2017-11-29T05:52:59.698Z,64.06
2017-11-29T05:54:02.161Z,64.05
2017-11-29T05:55:04.620Z,63.91
2017-11-29T05:56:07.083Z,63.68
2017-11-29T05:57:09.557Z,63.50
2017-11-29T05:58:12.025Z,63.38
2017-11-29T05:59:14.484Z,63.14
2017-11-29T06:00:16.960Z,63.22
2017-11-29T06:01:19.437Z,63.51
2017-11-29T06:02:21.914Z,64.23
2017-11-29T06:03:24.380Z,64.44
2017-11-29T06:04:26.849Z,62.67
2017-11-29T06:05:29.308Z,61.76
2017-11-29T06:06:31.779Z,61.52
2017-11-29T06:07:34.250Z,61.52
2017-11-29T06:08:36.718Z,61.07
2017-11-29T06:09:39.191Z,59.92
2017-11-29T06:10:41.662Z,59.76
2017-11-29T06:11:44.136Z,59.68
2017-11-29T06:12:46.610Z,59.75
2017-11-29T06:13:49.068Z,59.83
2017-11-29T06:14:51.593Z,59.93
2017-11-29T06:16:55.826Z,60.44
2017-11-29T06:17:58.310Z,60.61
2017-11-29T06:19:00.799Z,60.75
2017-11-29T06:20:03.277Z,60.93
2017-11-29T06:21:05.755Z,61.07
2017-11-29T06:22:08.251Z,61.25
2017-11-29T06:23:10.737Z,61.47
2017-11-29T06:24:13.217Z,61.63
2017-11-29T06:25:15.748Z,61.67
2017-11-29T06:26:18.246Z,61.66
2017-11-29T06:27:20.746Z,61.82
2017-11-29T06:28:23.235Z,61.95
2017-11-29T06:29:25.729Z,61.15
2017-11-29T06:30:28.210Z,60.90
2017-11-29T06:31:30.679Z,60.79
2017-11-29T06:32:33.196Z,60.76
2017-11-29T06:33:35.685Z,60.89
2017-11-29T06:34:38.174Z,61.26
2017-11-29T06:35:40.644Z,60.73
2017-11-29T06:36:43.136Z,60.24
2017-11-29T06:37:45.612Z,59.40
2017-11-29T06:38:48.096Z,59.50
2017-11-29T06:39:50.570Z,59.74
2017-11-29T06:40:53.059Z,59.03
2017-11-29T06:41:55.537Z,59.20
2017-11-29T06:42:58.022Z,58.67
2017-11-29T06:44:00.501Z,58.01
2017-11-29T06:45:02.986Z,57.46
2017-11-29T06:46:05.471Z,57.34
2017-11-29T06:47:07.955Z,57.28
2017-11-29T06:48:10.437Z,56.93
2017-11-29T06:49:12.934Z,56.39
2017-11-29T06:50:15.401Z,55.92
2017-11-29T06:51:17.869Z,55.65
2017-11-29T06:52:20.383Z,55.52
2017-11-29T06:53:22.879Z,55.27
2017-11-29T06:54:25.354Z,54.74
2017-11-29T06:55:27.836Z,55.01
2017-11-29T06:56:30.300Z,54.78
2017-11-29T06:57:32.799Z,55.04
2017-11-29T06:58:35.306Z,54.73
2017-11-29T06:59:37.916Z,54.88
2017-11-29T07:00:40.554Z,54.94
2017-11-29T07:01:43.044Z,54.65
2017-11-29T07:02:45.539Z,54.62
2017-11-29T07:03:48.045Z,54.68
2017-11-29T07:04:50.530Z,54.81
2017-11-29T07:05:53.019Z,54.95
2017-11-29T07:06:55.489Z,54.87
2017-11-29T07:07:58.026Z,55.22
2017-11-29T07:09:00.517Z,55.07
2017-11-29T07:10:02.984Z,55.25
2017-11-29T07:11:05.448Z,55.18
2017-11-29T07:12:07.939Z,55.13
2017-11-29T07:13:10.441Z,55.41
2017-11-29T07:14:12.938Z,55.47
2017-11-29T07:15:15.598Z,55.58
2017-11-29T07:16:18.126Z,55.47
2017-11-29T07:17:20.614Z,55.30
2017-11-29T07:18:23.108Z,55.52
2017-11-29T07:19:25.598Z,55.74
2017-11-29T07:20:28.086Z,55.98
2017-11-29T07:21:30.571Z,56.04
2017-11-29T07:22:33.114Z,55.99
2017-11-29T07:23:35.632Z,55.88
2017-11-29T07:24:38.122Z,55.39
2017-11-29T07:25:40.607Z,55.67
2017-11-29T07:26:43.093Z,55.85
2017-11-29T07:27:45.560Z,55.87
2017-11-29T07:28:48.048Z,55.76
2017-11-29T07:29:50.520Z,55.66
2017-11-29T07:30:53.067Z,56.09
2017-11-29T07:31:55.545Z,56.33
2017-11-29T07:32:58.017Z,56.47
2017-11-29T07:34:00.522Z,56.54
2017-11-29T07:35:02.996Z,56.58
2017-11-29T07:36:05.465Z,56.73
2017-11-29T07:37:07.941Z,56.94
2017-11-29T07:38:10.430Z,57.21
2017-11-29T07:39:12.921Z,56.96
2017-11-29T07:40:15.404Z,56.93
2017-11-29T07:41:17.876Z,56.86
2017-11-29T07:42:20.350Z,56.82
2017-11-29T07:43:22.835Z,56.70
2017-11-29T07:44:25.433Z,56.51
2017-11-29T07:45:27.915Z,56.23
2017-11-29T07:46:30.385Z,56.10
2017-11-29T07:47:32.912Z,55.86
2017-11-29T07:48:35.389Z,55.75
2017-11-29T07:49:37.915Z,55.63
2017-11-29T07:50:40.399Z,55.49
2017-11-29T07:51:42.895Z,55.45
2017-11-29T07:52:45.375Z,55.36
2017-11-29T07:53:47.882Z,55.33
2017-11-29T07:54:50.586Z,55.26
2017-11-29T07:55:53.065Z,55.26
2017-11-29T07:56:55.523Z,55.26
2017-11-29T07:57:58.007Z,55.25
2017-11-29T07:59:00.487Z,55.22
2017-11-29T08:00:02.970Z,55.18
2017-11-29T08:01:05.441Z,55.17
2017-11-29T08:02:07.988Z,55.16
2017-11-29T08:03:10.468Z,55.12
2017-11-29T08:04:12.955Z,55.12
2017-11-29T08:05:15.424Z,55.16
2017-11-29T08:06:17.915Z,55.15
2017-11-29T08:07:20.403Z,55.13
2017-11-29T08:08:22.869Z,55.09
2017-11-29T08:09:25.345Z,55.08
2017-11-29T08:10:27.846Z,55.10
2017-11-29T08:11:30.320Z,55.16
2017-11-29T08:12:32.811Z,55.20
2017-11-29T08:13:35.281Z,55.18
2017-11-29T08:14:37.752Z,55.10
2017-11-29T08:15:40.220Z,55.09
2017-11-29T08:16:42.713Z,55.11
2017-11-29T08:17:45.200Z,55.07
2017-11-29T08:18:47.689Z,55.04
2017-11-29T08:19:50.164Z,55.02
2017-11-29T08:20:52.659Z,55.11
2017-11-29T08:21:55.249Z,55.07
2017-11-29T08:22:57.738Z,55.02
2017-11-29T08:24:00.214Z,55.02
2017-11-29T08:25:02.702Z,55.05
2017-11-29T08:26:05.170Z,55.00
2017-11-29T08:27:07.650Z,55.04
2017-11-29T08:28:10.122Z,54.99
2017-11-29T08:29:12.604Z,54.92
2017-11-29T08:30:15.172Z,54.91
2017-11-29T08:31:17.650Z,54.92
2017-11-29T08:32:20.113Z,54.97
2017-11-29T08:33:22.594Z,54.95
2017-11-29T08:34:25.074Z,54.93
2017-11-29T08:35:27.578Z,54.95
2017-11-29T08:36:30.061Z,54.89
2017-11-29T08:37:32.549Z,54.93
2017-11-29T08:38:35.035Z,54.86
2017-11-29T08:39:37.499Z,54.86
2017-11-29T08:40:40.013Z,54.84
2017-11-29T08:41:42.508Z,54.82
2017-11-29T08:42:45.935Z,54.85
2017-11-29T08:43:48.423Z,54.82
2017-11-29T08:44:50.892Z,54.80
2017-11-29T08:45:53.352Z,54.83
2017-11-29T08:46:55.834Z,54.81
2017-11-29T08:47:58.326Z,54.79
2017-11-29T08:49:00.796Z,54.77
2017-11-29T08:50:03.270Z,54.78
2017-11-29T08:51:05.752Z,54.78
2017-11-29T08:52:08.220Z,54.74
2017-11-29T08:53:10.751Z,54.81
2017-11-29T08:54:13.234Z,54.76
2017-11-29T08:55:15.695Z,54.77
2017-11-29T08:56:18.174Z,54.87
2017-11-29T08:57:20.637Z,54.59
2017-11-29T08:58:23.109Z,54.64
2017-11-29T08:59:25.596Z,54.68
2017-11-29T09:00:28.065Z,53.97
2017-11-29T09:01:30.537Z,53.05
2017-11-29T09:02:33.022Z,52.37
2017-11-29T09:03:35.497Z,52.67
2017-11-29T09:04:37.969Z,53.23
2017-11-29T09:05:40.438Z,53.33
2017-11-29T09:06:42.905Z,53.19
2017-11-29T09:07:45.382Z,52.42
2017-11-29T09:08:47.889Z,52.08
2017-11-29T09:09:50.370Z,51.88
2017-11-29T09:10:52.863Z,51.99
2017-11-29T09:11:55.359Z,52.03
2017-11-29T09:12:57.828Z,51.86
2017-11-29T09:14:00.307Z,51.66
2017-11-29T09:15:02.805Z,51.73
2017-11-29T09:16:05.299Z,51.72
2017-11-29T09:17:07.813Z,51.87
2017-11-29T09:18:10.298Z,51.85
2017-11-29T09:19:12.772Z,51.59
2017-11-29T09:20:15.235Z,51.36
2017-11-29T09:21:17.716Z,51.03
2017-11-29T09:22:20.251Z,50.80
2017-11-29T09:23:22.742Z,50.54
2017-11-29T09:24:25.262Z,50.20
2017-11-29T09:25:27.850Z,49.99
2017-11-29T09:26:30.312Z,49.71
2017-11-29T09:27:32.831Z,49.69
2017-11-29T09:28:35.318Z,49.53
2017-11-29T09:29:37.823Z,49.54
2017-11-29T09:30:40.323Z,49.38
2017-11-29T09:31:43.123Z,49.27
2017-11-29T09:32:45.640Z,49.23
2017-11-29T09:33:48.133Z,49.24
2017-11-29T09:34:50.600Z,49.32
2017-11-29T09:35:53.058Z,49.31
2017-11-29T09:36:55.515Z,49.37
2017-11-29T09:37:58.031Z,49.31
2017-11-29T09:39:00.549Z,49.24
2017-11-29T09:40:03.022Z,49.09
2017-11-29T09:41:05.511Z,48.95
2017-11-29T09:42:07.987Z,48.81
2017-11-29T09:43:10.488Z,48.74
2017-11-29T09:44:12.956Z,48.67
2017-11-29T09:45:15.450Z,48.63
2017-11-29T09:46:17.930Z,48.58
2017-11-29T09:47:20.393Z,48.65
2017-11-29T09:48:22.881Z,48.67
2017-11-29T09:49:25.369Z,48.66
2017-11-29T09:50:27.858Z,48.67
2017-11-29T09:51:30.343Z,48.72
2017-11-29T09:52:32.817Z,48.80
2017-11-29T09:53:35.319Z,48.80
2017-11-29T09:54:37.798Z,48.86
2017-11-29T09:55:40.269Z,48.83
2017-11-29T09:56:42.773Z,48.73
2017-11-29T09:57:45.285Z,48.58
2017-11-29T09:58:47.875Z,48.40
2017-11-29T09:59:50.344Z,48.33
2017-11-29T10:00:52.812Z,48.16
2017-11-29T10:01:55.293Z,48.21
2017-11-29T10:02:57.777Z,48.14
2017-11-29T10:04:00.261Z,48.10
2017-11-29T10:05:02.734Z,48.19
2017-11-29T10:06:05.287Z,48.22
2017-11-29T10:07:07.801Z,48.24
2017-11-29T10:08:10.298Z,48.34
2017-11-29T10:09:12.798Z,48.39
2017-11-29T10:10:15.274Z,48.42
2017-11-29T10:11:17.776Z,48.45
2017-11-29T10:12:20.260Z,48.42
2017-11-29T10:13:22.771Z,48.38
2017-11-29T10:14:25.478Z,48.25
2017-11-29T10:15:27.958Z,48.10
2017-11-29T10:16:30.436Z,47.96
2017-11-29T10:17:32.909Z,47.97
2017-11-29T10:18:35.388Z,47.99
2017-11-29T10:19:37.896Z,47.93
2017-11-29T10:20:40.482Z,47.91
2017-11-29T10:21:43.024Z,47.95
2017-11-29T10:22:45.488Z,48.09
2017-11-29T10:23:48.004Z,48.18
2017-11-29T10:24:50.508Z,48.32
2017-11-29T10:25:53.005Z,48.51
2017-11-29T10:26:55.483Z,48.62
2017-11-29T10:27:57.970Z,48.62
2017-11-29T10:29:00.734Z,48.69
2017-11-29T10:30:03.380Z,48.70
2017-11-29T10:31:05.979Z,48.64
2017-11-29T10:32:08.461Z,48.60
2017-11-29T10:33:11.171Z,48.58
2017-11-29T10:34:13.658Z,48.55
2017-11-29T10:35:16.178Z,48.54
2017-11-29T10:36:18.662Z,48.61
2017-11-29T10:37:21.134Z,48.69
2017-11-29T10:38:23.614Z,48.75
2017-11-29T10:39:26.204Z,48.78
2017-11-29T10:40:28.706Z,48.86
2017-11-29T10:41:31.178Z,49.00
2017-11-29T10:42:33.645Z,49.03
2017-11-29T10:43:36.495Z,49.12
2017-11-29T10:44:38.994Z,49.20
2017-11-29T10:45:41.509Z,49.24
2017-11-29T10:46:43.981Z,49.27
2017-11-29T10:47:46.729Z,49.17
2017-11-29T10:48:49.204Z,49.06
2017-11-29T10:49:51.710Z,48.98
2017-11-29T10:50:54.197Z,48.89
2017-11-29T10:51:56.658Z,48.82
2017-11-29T10:52:59.112Z,48.79
2017-11-29T10:54:01.577Z,48.82
2017-11-29T10:55:04.062Z,48.79
2017-11-29T10:56:06.540Z,48.90
2017-11-29T10:57:09.004Z,48.99
2017-11-29T10:58:11.492Z,49.08
2017-11-29T10:59:13.986Z,49.15
2017-11-29T11:00:30.246Z,49.19
2017-11-29T11:01:32.772Z,49.29
2017-11-29T11:02:35.266Z,49.21
2017-11-29T11:03:37.736Z,49.12
2017-11-29T11:04:40.204Z,49.06
2017-11-29T11:05:42.677Z,48.93
2017-11-29T11:06:45.175Z,48.84
2017-11-29T11:07:47.640Z,48.74
2017-11-29T11:08:50.710Z,48.66
2017-11-29T11:09:53.203Z,48.63
2017-11-29T11:10:55.678Z,48.62
2017-11-29T11:11:58.199Z,48.73
2017-11-29T11:13:00.680Z,48.78
2017-11-29T11:14:03.155Z,48.86
2017-11-29T11:15:05.611Z,48.93
2017-11-29T11:16:08.077Z,48.96
2017-11-29T11:17:10.584Z,49.02
2017-11-29T11:18:13.061Z,49.02
2017-11-29T11:19:15.685Z,49.06
2017-11-29T11:20:18.143Z,49.04
2017-11-29T11:21:20.600Z,48.86
2017-11-29T11:22:23.086Z,48.72
2017-11-29T11:23:25.575Z,48.58
2017-11-29T11:24:28.046Z,48.53
2017-11-29T11:25:30.537Z,48.58
2017-11-29T11:26:33.000Z,48.65
2017-11-29T11:27:35.498Z,49.04
2017-11-29T11:28:37.985Z,48.95
2017-11-29T11:29:40.446Z,49.02
2017-11-29T11:30:42.917Z,49.05
2017-11-29T11:31:45.402Z,49.12
2017-11-29T11:32:47.915Z,48.46
2017-11-29T11:33:50.397Z,48.45
2017-11-29T11:34:52.860Z,48.54
2017-11-29T11:35:55.320Z,48.70
2017-11-29T11:36:57.818Z,48.77
2017-11-29T11:38:00.329Z,48.83
2017-11-29T11:39:02.813Z,48.89
2017-11-29T11:40:05.280Z,48.95
2017-11-29T11:41:07.766Z,49.01
2017-11-29T11:42:10.237Z,49.05
2017-11-29T11:43:12.751Z,49.08
2017-11-29T11:44:15.217Z,49.12
2017-11-29T11:45:17.689Z,49.23
2017-11-29T11:46:20.162Z,49.29
2017-11-29T11:47:22.647Z,49.31
2017-11-29T11:48:25.178Z,49.39
2017-11-29T11:49:27.641Z,49.49
2017-11-29T11:50:30.129Z,49.50
2017-11-29T11:51:32.609Z,49.52
2017-11-29T11:52:35.228Z,49.54
2017-11-29T11:53:37.728Z,49.57
2017-11-29T11:54:40.184Z,49.56
2017-11-29T11:55:42.658Z,49.59
2017-11-29T11:56:45.134Z,49.70
2017-11-29T11:57:47.607Z,49.73
2017-11-29T11:58:50.087Z,49.79
2017-11-29T11:59:52.559Z,50.00
2017-11-29T12:00:55.034Z,50.11
2017-11-29T12:01:57.518Z,50.28
2017-11-29T12:02:59.986Z,50.17
2017-11-29T12:04:02.484Z,50.16
2017-11-29T12:05:04.985Z,50.12
2017-11-29T12:06:07.462Z,50.16
2017-11-29T12:07:09.972Z,50.26
2017-11-29T12:08:12.433Z,50.37
2017-11-29T12:09:14.927Z,50.59
2017-11-29T12:10:17.393Z,50.61
2017-11-29T12:11:19.860Z,50.58
2017-11-29T12:12:22.316Z,50.59
2017-11-29T12:13:24.787Z,50.60
2017-11-29T12:14:27.287Z,50.58
2017-11-29T12:15:29.774Z,50.64
2017-11-29T12:16:32.232Z,50.69
2017-11-29T12:17:34.688Z,50.71
2017-11-29T12:18:37.167Z,50.69
2017-11-29T12:19:39.649Z,50.68
2017-11-29T12:20:42.132Z,50.71
2017-11-29T12:21:44.605Z,50.79
2017-11-29T12:22:47.086Z,50.99
2017-11-29T12:23:49.571Z,51.15
2017-11-29T12:24:52.055Z,51.33
2017-11-29T12:25:54.512Z,51.42
2017-11-29T12:26:56.976Z,51.52
2017-11-29T12:27:59.437Z,51.61
2017-11-29T12:29:01.908Z,51.73
2017-11-29T12:30:04.401Z,51.79
2017-11-29T12:31:06.864Z,51.89
2017-11-29T12:32:09.337Z,51.94
2017-11-29T12:33:11.801Z,51.97
2017-11-29T12:34:14.260Z,52.01
2017-11-29T12:35:16.760Z,52.06
2017-11-29T12:36:19.221Z,52.09
2017-11-29T12:37:21.675Z,52.16
2017-11-29T12:38:24.136Z,52.22
2017-11-29T12:39:26.596Z,52.26
2017-11-29T12:40:29.534Z,52.29
2017-11-29T12:41:32.016Z,52.29
2017-11-29T12:42:34.489Z,52.35
2017-11-29T12:43:36.953Z,52.50
2017-11-29T12:44:39.444Z,52.50
2017-11-29T12:45:41.956Z,52.66
2017-11-29T12:46:44.435Z,52.86
2017-11-29T12:47:46.948Z,53.37
2017-11-29T12:49:01.294Z,53.36
2017-11-29T12:50:15.667Z,53.49
2017-11-29T12:51:18.955Z,53.54
2017-11-29T12:52:21.445Z,53.59
2017-11-29T12:53:24.979Z,53.63
2017-11-29T12:54:27.500Z,53.64
2017-11-29T12:55:29.983Z,53.69
2017-11-29T12:56:32.458Z,53.79
2017-11-29T12:57:34.922Z,53.83
2017-11-29T12:58:37.392Z,53.88
2017-11-29T12:59:39.864Z,53.94
2017-11-29T13:00:42.346Z,54.02
2017-11-29T13:01:44.822Z,54.09
2017-11-29T13:02:47.314Z,54.16
2017-11-29T13:03:49.775Z,54.23
2017-11-29T13:04:52.271Z,54.25
2017-11-29T13:05:54.753Z,54.31
2017-11-29T13:06:57.231Z,54.37
2017-11-29T13:07:59.753Z,54.41
2017-11-29T13:09:02.234Z,54.46
2017-11-29T13:10:04.711Z,54.50
2017-11-29T13:11:07.178Z,54.51
2017-11-29T13:12:09.665Z,54.54
2017-11-29T13:13:12.127Z,54.57
2017-11-29T13:14:14.598Z,54.51
2017-11-29T13:15:17.074Z,54.51
2017-11-29T13:16:19.554Z,54.56
2017-11-29T13:17:22.026Z,54.57
2017-11-29T13:18:24.513Z,54.58
2017-11-29T13:19:26.969Z,54.58
2017-11-29T13:20:29.455Z,54.54
2017-11-29T13:21:31.917Z,54.54
2017-11-29T13:22:34.380Z,54.55
2017-11-29T13:23:36.848Z,54.53
2017-11-29T13:24:39.333Z,54.52
2017-11-29T13:25:41.812Z,54.52
2017-11-29T13:26:44.457Z,54.49
2017-11-29T13:27:46.928Z,54.47